createdAt,value
2019-05-15T00:02:13.675Z,5.63
2019-05-15T00:04:50.793Z,5.73
2019-05-15T00:07:29.435Z,5.13
2019-05-15T00:10:08.740Z,6.83
2019-05-15T00:12:45.510Z,6.43
2019-05-15T00:15:22.680Z,4.40
2019-05-15T00:17:59.715Z,5.67
2019-05-15T00:20:39.280Z,7.17
2019-05-15T00:23:18.165Z,5.93
2019-05-15T00:25:54.302Z,6.10
2019-05-15T00:28:31.375Z,6.90
2019-05-15T00:31:09.141Z,6.50
2019-05-15T00:33:48.241Z,7.10
2019-05-15T00:36:25.297Z,6.50
2019-05-15T00:39:02.424Z,6.90
2019-05-15T00:41:50.517Z,7.30
2019-05-15T00:44:18.702Z,7.60
2019-05-15T00:46:58.277Z,6.77
2019-05-15T00:49:38.101Z,5.90
2019-05-15T00:52:14.437Z,6.77
2019-05-15T00:54:51.504Z,7.50
2019-05-15T00:57:28.651Z,4.80
2019-05-15T01:00:08.226Z,6.47
2019-05-15T01:02:45.461Z,5.00
2019-05-15T01:05:22.580Z,7.40
2019-05-15T01:08:00.199Z,5.83
2019-05-15T01:10:38.643Z,6.17
2019-05-15T01:13:15.931Z,6.60
2019-05-15T01:15:53.000Z,4.57
2019-05-15T01:18:30.158Z,6.63
2019-05-15T01:21:08.362Z,5.90
2019-05-15T01:23:48.258Z,6.33
2019-05-15T01:26:24.668Z,7.07
2019-05-15T01:29:01.805Z,7.13
2019-05-15T01:31:38.802Z,7.20
2019-05-15T01:34:18.327Z,6.53
2019-05-15T01:36:54.643Z,7.70
2019-05-15T01:39:31.807Z,6.40
2019-05-15T01:42:08.800Z,6.90
2019-05-15T01:44:48.245Z,5.20
2019-05-15T01:47:24.673Z,6.67
2019-05-15T01:50:08.928Z,5.03
2019-05-15T01:52:45.466Z,6.43
2019-05-15T01:55:22.560Z,6.23
2019-05-15T01:57:59.707Z,5.70
2019-05-15T02:00:38.874Z,7.50
2019-05-15T02:03:15.532Z,6.67
2019-05-15T02:05:52.600Z,5.90
2019-05-15T02:08:29.815Z,6.83
2019-05-15T02:11:09.083Z,6.57
2019-05-15T02:13:47.922Z,8.87
2019-05-15T02:16:24.573Z,9.37
2019-05-15T02:19:01.719Z,7.93
2019-05-15T02:21:38.830Z,7.43
2019-05-15T02:24:15.992Z,8.60
2019-05-15T02:26:53.082Z,10.73
2019-05-15T02:29:30.253Z,10.03
2019-05-15T02:32:10.125Z,9.90
2019-05-15T02:34:49.761Z,7.23
2019-05-15T02:37:29.102Z,13.63
2019-05-15T02:40:05.000Z,12.00
2019-05-15T02:42:42.143Z,10.50
2019-05-15T02:45:19.730Z,12.90
2019-05-15T02:47:59.560Z,12.30
2019-05-15T02:50:38.782Z,11.83
2019-05-15T02:53:14.305Z,10.27
2019-05-15T02:55:51.358Z,12.13
2019-05-15T02:58:29.123Z,13.13
2019-05-15T03:01:09.327Z,12.50
2019-05-15T03:03:45.419Z,11.43
2019-05-15T03:06:22.584Z,10.67
2019-05-15T03:08:59.822Z,13.17
2019-05-15T03:11:40.446Z,12.20
2019-05-15T03:14:15.761Z,13.17
2019-05-15T03:16:52.963Z,11.80
2019-05-15T03:19:30.257Z,11.83
2019-05-15T03:22:09.807Z,10.27
2019-05-15T03:24:46.256Z,15.03
2019-05-15T03:27:23.387Z,11.17
2019-05-15T03:30:00.515Z,12.73
2019-05-15T03:32:46.666Z,11.87
2019-05-15T03:35:22.128Z,17.23
2019-05-15T03:37:55.191Z,15.47
2019-05-15T03:43:54.120Z,13.60
2019-05-15T03:46:31.277Z,12.77
2019-05-15T03:49:08.712Z,16.40
2019-05-15T03:51:46.295Z,14.90
2019-05-15T03:54:24.172Z,12.93
2019-05-15T03:57:01.337Z,16.17
2019-05-15T03:59:39.949Z,14.87
2019-05-15T04:02:19.404Z,14.80
2019-05-15T04:04:58.084Z,16.27
2019-05-15T04:07:34.766Z,11.97
2019-05-15T04:10:12.488Z,11.50
2019-05-15T04:12:59.895Z,13.27
2019-05-15T04:15:39.052Z,10.43
2019-05-15T04:18:14.557Z,12.33
2019-05-15T04:20:51.721Z,15.37
2019-05-15T04:23:30.133Z,17.73
2019-05-15T04:26:09.370Z,17.40
2019-05-15T04:28:49.196Z,16.87
2019-05-15T04:31:25.232Z,16.07
2019-05-15T04:34:02.485Z,14.90
2019-05-15T04:36:44.148Z,10.77
2019-05-15T04:39:19.311Z,17.90
2019-05-15T04:41:59.014Z,15.93
2019-05-15T04:44:35.649Z,13.17
2019-05-15T04:47:12.972Z,16.73
2019-05-15T04:49:50.666Z,13.83
2019-05-15T04:52:30.503Z,13.93
2019-05-15T04:55:10.106Z,15.40
2019-05-15T04:57:46.285Z,13.67
2019-05-15T05:00:43.583Z,13.97
2019-05-15T05:03:21.121Z,11.27
2019-05-15T05:05:59.415Z,15.47
2019-05-15T05:08:39.734Z,11.97
2019-05-15T05:11:16.138Z,13.17
2019-05-15T05:13:53.234Z,14.90
2019-05-15T05:16:30.465Z,13.20
2019-05-15T05:19:08.942Z,11.20
2019-05-15T05:21:47.937Z,12.60
2019-05-15T05:24:32.200Z,11.13
2019-05-15T05:27:09.349Z,10.50
2019-05-15T05:29:48.052Z,15.57
2019-05-15T05:32:32.062Z,12.83
2019-05-15T05:35:08.444Z,12.73
2019-05-15T05:37:47.937Z,16.67
2019-05-15T05:40:25.900Z,15.53
2019-05-15T05:43:04.510Z,15.57
2019-05-15T05:45:41.579Z,13.57
2019-05-15T05:48:19.257Z,16.23
2019-05-15T05:50:58.422Z,14.10
2019-05-15T05:53:35.410Z,14.80
2019-05-15T05:56:12.556Z,13.57
2019-05-15T05:58:49.708Z,21.17
2019-05-15T06:01:28.242Z,14.37
2019-05-15T06:04:07.758Z,11.80
2019-05-15T06:06:44.290Z,13.63
2019-05-15T06:09:21.441Z,13.87
2019-05-15T06:12:00.418Z,13.50
2019-05-15T06:14:38.120Z,14.33
2019-05-15T06:17:15.247Z,19.20
2019-05-15T06:19:52.402Z,19.13
2019-05-15T06:22:30.625Z,13.20
2019-05-15T06:25:11.445Z,11.37
2019-05-15T06:27:48.169Z,13.77
2019-05-15T06:30:29.888Z,14.33
2019-05-15T06:33:10.659Z,14.80
2019-05-15T06:35:43.835Z,14.17
2019-05-15T06:38:21.611Z,15.67
2019-05-15T06:40:58.781Z,14.30
2019-05-15T06:43:35.943Z,12.90
2019-05-15T06:46:13.141Z,14.47
2019-05-15T06:48:50.342Z,12.77
2019-05-15T06:51:28.826Z,15.03
2019-05-15T06:54:08.549Z,13.10
2019-05-15T06:56:44.845Z,13.50
2019-05-15T06:59:21.959Z,12.07
2019-05-15T07:01:59.516Z,12.50
2019-05-15T07:04:38.335Z,11.73
2019-05-15T07:07:18.049Z,12.50
2019-05-15T07:09:54.273Z,14.93
2019-05-15T07:12:31.532Z,14.73
2019-05-15T07:15:09.418Z,19.63
2019-05-15T07:17:48.416Z,23.00
2019-05-15T07:20:25.422Z,14.23
2019-05-15T07:23:02.652Z,19.03
2019-05-15T07:25:39.822Z,12.63
2019-05-15T07:28:18.135Z,15.53
2019-05-15T07:30:55.499Z,15.87
2019-05-15T07:33:38.994Z,13.27
2019-05-15T07:36:11.377Z,18.07
2019-05-15T07:38:48.674Z,19.93
2019-05-15T07:41:25.712Z,15.80
2019-05-15T07:44:02.898Z,15.07
2019-05-15T07:46:39.974Z,14.57
2019-05-15T07:49:21.072Z,18.67
2019-05-15T07:51:59.207Z,19.33
2019-05-15T07:54:38.307Z,23.43
2019-05-15T07:57:15.180Z,21.80
2019-05-15T07:59:52.430Z,24.53
2019-05-15T08:02:29.449Z,17.20
2019-05-15T08:05:08.459Z,18.37
2019-05-15T08:07:45.534Z,21.30
2019-05-15T08:10:22.685Z,24.47
2019-05-15T08:12:59.754Z,14.00
2019-05-15T08:15:38.110Z,18.57
2019-05-15T08:18:17.821Z,24.23
2019-05-15T08:20:54.182Z,26.53
2019-05-15T08:23:31.302Z,25.93
2019-05-15T08:26:08.916Z,21.20
2019-05-15T08:28:48.503Z,24.23
2019-05-15T08:31:25.051Z,20.97
2019-05-15T08:34:12.629Z,22.57
2019-05-15T08:36:40.918Z,25.03
2019-05-15T08:39:19.080Z,22.70
2019-05-15T08:41:58.323Z,20.97
2019-05-15T08:44:35.001Z,19.03
2019-05-15T08:47:12.148Z,20.10
2019-05-15T08:49:49.209Z,21.17
2019-05-15T08:52:28.312Z,16.50
2019-05-15T08:55:08.634Z,19.00
2019-05-15T08:57:54.117Z,16.13
2019-05-15T09:00:24.989Z,15.63
2019-05-15T09:03:02.167Z,20.73
2019-05-15T09:05:39.692Z,20.20
2019-05-15T09:08:19.429Z,20.43
2019-05-15T09:10:55.523Z,15.97
2019-05-15T09:13:32.685Z,23.83
2019-05-15T09:16:09.807Z,20.40
2019-05-15T09:18:48.521Z,20.40
2019-05-15T09:21:28.252Z,22.43
2019-05-15T09:24:04.735Z,23.20
2019-05-15T09:26:42.572Z,27.80
2019-05-15T09:29:20.119Z,31.53
2019-05-15T09:31:58.829Z,34.07
2019-05-15T09:34:49.946Z,24.57
2019-05-15T09:37:14.918Z,27.63
2019-05-15T09:39:52.115Z,31.37
2019-05-15T09:42:29.255Z,28.17
2019-05-15T09:45:08.898Z,32.33
2019-05-15T09:47:48.446Z,34.30
2019-05-15T09:50:25.506Z,32.10
2019-05-15T09:53:02.644Z,31.13
2019-05-15T09:55:42.806Z,32.37
2019-05-15T09:58:20.953Z,34.17
2019-05-15T10:00:58.297Z,33.03
2019-05-15T10:03:35.467Z,39.27
2019-05-15T10:06:12.595Z,38.30
2019-05-15T10:08:49.742Z,41.83
2019-05-15T10:11:28.934Z,26.17
2019-05-15T10:14:05.696Z,39.63
2019-05-15T10:16:43.380Z,39.57
2019-05-15T10:19:21.045Z,36.50
2019-05-15T10:21:59.508Z,34.90
2019-05-15T10:24:36.896Z,36.33
2019-05-15T10:27:13.979Z,37.43
2019-05-15T10:29:51.099Z,34.63
2019-05-15T10:32:28.994Z,33.00
2019-05-15T10:35:24.017Z,41.87
2019-05-15T10:37:48.528Z,26.13
2019-05-15T10:40:24.465Z,36.50
2019-05-15T10:43:01.539Z,26.57
2019-05-15T10:45:42.262Z,25.97
2019-05-15T10:48:18.942Z,29.40
2019-05-15T10:51:01.656Z,40.80
2019-05-15T10:53:35.019Z,37.17
2019-05-15T10:56:12.168Z,36.83
2019-05-15T10:58:50.623Z,25.13
2019-05-15T11:01:27.898Z,32.27
2019-05-15T11:04:05.760Z,25.83
2019-05-15T11:06:42.972Z,24.93
2019-05-15T11:09:20.043Z,38.87
2019-05-15T11:11:58.326Z,27.10
2019-05-15T11:14:37.854Z,24.87
2019-05-15T11:17:14.318Z,36.17
2019-05-15T11:19:51.453Z,24.33
2019-05-15T11:22:29.931Z,42.13
2019-05-15T11:25:09.934Z,43.47
2019-05-15T11:27:48.427Z,37.20
2019-05-15T11:30:25.669Z,25.73
2019-05-15T11:33:02.962Z,36.83
2019-05-15T11:35:56.380Z,41.23
2019-05-15T11:38:19.597Z,24.70
2019-05-15T11:40:56.866Z,32.13
2019-05-15T11:43:33.970Z,40.80
2019-05-15T11:46:11.015Z,37.80
2019-05-15T11:48:49.792Z,34.80
2019-05-15T11:51:29.064Z,33.50
2019-05-15T11:54:08.039Z,43.73
2019-05-15T11:56:44.404Z,32.73
2019-05-15T11:59:21.524Z,42.53
2019-05-15T12:01:59.934Z,48.70
2019-05-15T12:04:38.315Z,37.37
2019-05-15T12:07:17.668Z,53.20
2019-05-15T12:09:54.370Z,36.00
2019-05-15T12:12:32.156Z,48.90
2019-05-15T12:15:09.311Z,36.67
2019-05-15T12:17:48.500Z,35.83
2019-05-15T12:20:28.343Z,29.53
2019-05-15T12:23:04.146Z,52.40
2019-05-15T12:25:41.278Z,30.00
2019-05-15T12:28:18.479Z,44.90
2019-05-15T12:30:59.334Z,41.90
2019-05-15T12:33:34.810Z,37.77
2019-05-15T12:39:13.245Z,45.70
2019-05-15T13:00:22.724Z,36.03
2019-05-15T13:02:59.878Z,37.30
2019-05-15T13:05:39.246Z,29.50
2019-05-15T13:08:19.304Z,41.07
2019-05-15T13:10:55.325Z,33.50
2019-05-15T13:13:32.549Z,35.60
2019-05-15T13:16:09.783Z,28.97
2019-05-15T13:18:48.095Z,37.07
2019-05-15T13:21:25.693Z,27.30
2019-05-15T13:24:02.864Z,35.50
2019-05-15T13:27:07.811Z,43.47
2019-05-15T13:30:04.900Z,31.40
2019-05-15T13:32:42.079Z,35.57
2019-05-15T13:35:19.171Z,46.13
2019-05-15T13:37:58.490Z,39.97
2019-05-15T13:40:39.013Z,50.03
2019-05-15T13:43:13.834Z,43.57
2019-05-15T13:45:50.963Z,48.37
2019-05-15T13:48:29.810Z,36.77
2019-05-15T13:51:07.094Z,41.23
2019-05-15T13:53:44.251Z,28.17
2019-05-15T13:56:21.421Z,31.80
2019-05-15T13:58:58.839Z,34.43
2019-05-15T14:01:39.107Z,33.40
2019-05-15T14:04:18.152Z,31.63
2019-05-15T14:06:54.099Z,37.97
2019-05-15T14:09:33.696Z,39.27
2019-05-15T14:12:12.343Z,43.43
2019-05-15T14:14:49.136Z,47.57
2019-05-15T14:17:27.929Z,29.40
2019-05-15T14:20:05.576Z,36.73
2019-05-15T14:22:42.891Z,45.23
2019-05-15T14:25:20.015Z,48.37
2019-05-15T14:27:59.418Z,38.37
2019-05-15T14:30:35.977Z,31.07
2019-05-15T14:33:13.153Z,40.57
2019-05-15T14:35:50.581Z,44.43
2019-05-15T14:38:29.761Z,47.13
2019-05-15T14:41:08.839Z,36.43
2019-05-15T14:43:45.817Z,38.57
2019-05-15T14:46:23.074Z,29.33
2019-05-15T14:49:00.259Z,26.07
2019-05-15T14:51:39.204Z,27.80
2019-05-15T14:54:18.272Z,22.33
2019-05-15T14:56:55.416Z,28.47
2019-05-15T14:59:32.630Z,28.93
2019-05-15T15:02:12.543Z,33.20
2019-05-15T15:04:49.667Z,26.10
2019-05-15T15:07:28.292Z,24.07
2019-05-15T15:10:07.899Z,28.90
2019-05-15T15:12:45.257Z,30.83
2019-05-15T15:15:22.439Z,25.97
2019-05-15T15:17:59.581Z,25.20
2019-05-15T15:20:38.010Z,27.23
2019-05-15T15:23:16.834Z,30.17
2019-05-15T15:25:53.950Z,25.23
2019-05-15T15:28:31.198Z,29.60
2019-05-15T15:31:11.893Z,24.90
2019-05-15T15:33:49.157Z,26.20
2019-05-15T15:36:28.395Z,24.23
2019-05-15T15:39:13.074Z,23.53
2019-05-15T15:41:48.553Z,35.40
2019-05-15T15:44:28.198Z,25.43
2019-05-15T15:47:05.207Z,24.83
2019-05-15T15:49:48.364Z,33.13
2019-05-15T15:52:30.162Z,29.93
2019-05-15T15:55:13.772Z,29.77
2019-05-15T15:57:51.208Z,34.73
2019-05-15T16:00:28.816Z,27.07
2019-05-15T16:03:08.202Z,29.80
2019-05-15T16:05:45.054Z,29.23
2019-05-15T16:08:22.260Z,31.40
2019-05-15T16:10:59.469Z,27.87
2019-05-15T16:13:38.639Z,29.23
2019-05-15T16:16:17.824Z,33.83
2019-05-15T16:18:54.375Z,47.53
2019-05-15T16:21:31.759Z,46.33
2019-05-15T16:24:17.278Z,35.80
2019-05-15T16:26:49.847Z,34.10
2019-05-15T16:29:28.295Z,41.00
2019-05-15T16:32:05.693Z,44.27
2019-05-15T16:34:44.004Z,38.23
2019-05-15T16:37:21.169Z,42.07
2019-05-15T16:40:00.027Z,36.63
2019-05-15T16:42:43.563Z,38.97
2019-05-15T16:45:20.869Z,72.17
2019-05-15T16:47:58.789Z,39.43
2019-05-15T16:50:38.166Z,37.53
2019-05-15T16:53:22.291Z,39.13
2019-05-15T16:55:59.871Z,39.27
2019-05-15T16:58:38.544Z,41.20
2019-05-15T17:01:18.482Z,40.70
2019-05-15T17:03:55.167Z,44.50
2019-05-15T17:06:33.032Z,40.47
2019-05-15T17:09:20.867Z,44.30
2019-05-15T17:11:58.240Z,37.53
2019-05-15T17:14:38.383Z,41.80
2019-05-15T17:17:14.556Z,37.63
2019-05-15T17:19:51.690Z,49.50
2019-05-15T17:22:28.962Z,40.20
2019-05-15T17:25:08.889Z,49.23
2019-05-15T17:27:51.079Z,41.67
2019-05-15T17:30:28.727Z,43.50
2019-05-15T17:33:06.431Z,44.23
2019-05-15T17:35:44.199Z,41.17
2019-05-15T17:38:21.238Z,43.60
2019-05-15T17:40:58.394Z,42.70
2019-05-15T17:43:37.799Z,47.10
2019-05-15T17:46:14.361Z,47.37
2019-05-15T17:48:55.942Z,51.00
2019-05-15T17:51:30.283Z,50.63
2019-05-15T17:54:08.895Z,45.80
2019-05-15T17:56:48.704Z,37.80
2019-05-15T17:59:25.073Z,40.27
2019-05-15T18:02:02.425Z,35.27
2019-05-15T18:04:39.714Z,44.20
2019-05-15T18:07:16.910Z,39.87
2019-05-15T18:09:54.940Z,37.97
2019-05-15T18:12:32.196Z,38.83
2019-05-15T18:15:09.527Z,46.77
2019-05-15T18:17:48.198Z,39.37
2019-05-15T18:20:33.277Z,44.53
2019-05-15T18:23:10.407Z,38.50
2019-05-15T18:25:49.192Z,36.13
2019-05-15T18:28:26.830Z,39.25
2019-05-15T18:31:04.010Z,38.50
2019-05-15T18:33:53.062Z,42.37
2019-05-15T18:36:20.652Z,38.10
2019-05-15T18:38:58.934Z,34.50
2019-05-15T18:41:37.788Z,33.13
2019-05-15T18:44:15.127Z,38.77
2019-05-15T18:46:52.628Z,34.30
2019-05-15T18:49:29.827Z,33.77
2019-05-15T18:52:08.776Z,32.73
2019-05-15T18:54:48.086Z,32.73
2019-05-15T18:57:25.061Z,30.73
2019-05-15T19:00:02.323Z,32.27
2019-05-15T19:02:39.586Z,31.20
2019-05-15T19:05:18.554Z,30.90
2019-05-15T19:07:57.730Z,28.87
2019-05-15T19:10:34.592Z,27.73
2019-05-15T19:13:11.714Z,30.03
2019-05-15T19:15:49.294Z,29.00
2019-05-15T19:18:27.949Z,27.93
2019-05-15T19:21:05.210Z,27.37
2019-05-15T19:23:42.640Z,39.27
2019-05-15T19:26:20.030Z,29.00
2019-05-15T19:28:59.219Z,28.17
2019-05-15T19:31:39.272Z,26.90
2019-05-15T19:34:18.831Z,27.90
2019-05-15T19:36:55.495Z,29.33
2019-05-15T19:39:33.505Z,28.00
2019-05-15T19:42:10.799Z,31.03
2019-05-15T19:44:48.600Z,30.23
2019-05-15T19:47:26.147Z,26.43
2019-05-15T19:50:03.974Z,30.97
2019-05-15T19:52:41.599Z,28.23
2019-05-15T19:55:21.043Z,26.10
2019-05-15T19:58:05.366Z,29.57
2019-05-15T20:00:51.486Z,25.97
2019-05-15T20:03:28.398Z,26.23
2019-05-15T20:06:07.918Z,29.13
2019-05-15T20:08:45.256Z,30.20
2019-05-15T20:11:23.248Z,28.97
2019-05-15T20:14:00.916Z,29.17
2019-05-15T20:16:38.982Z,31.53
2019-05-15T20:19:18.156Z,33.13
2019-05-15T20:21:55.034Z,30.47
2019-05-15T20:24:32.405Z,37.73
2019-05-15T20:27:11.036Z,31.57
2019-05-15T20:29:48.642Z,31.00
2019-05-15T20:32:27.849Z,31.07
2019-05-15T20:35:08.674Z,31.67
2019-05-15T20:37:45.889Z,31.30
2019-05-15T20:40:26.950Z,38.83
2019-05-15T20:43:04.070Z,31.17
2019-05-15T20:45:41.232Z,29.80
2019-05-15T20:48:18.495Z,29.60
2019-05-15T20:50:55.707Z,32.00
2019-05-15T20:53:32.853Z,33.90
2019-05-15T20:56:10.139Z,27.73
2019-05-15T20:58:48.600Z,27.90
2019-05-15T21:01:28.821Z,33.17
2019-05-15T21:04:20.760Z,29.17
2019-05-15T21:06:57.099Z,28.73
2019-05-15T21:09:38.953Z,29.77
2019-05-15T21:12:17.950Z,33.90
2019-05-15T21:14:58.117Z,26.90
2019-05-15T21:17:39.594Z,27.67
2019-05-15T21:20:18.700Z,25.47
2019-05-15T21:23:01.109Z,27.83
2019-05-15T21:25:41.422Z,25.80
2019-05-15T21:28:20.761Z,27.57
2019-05-15T21:31:00.360Z,22.77
2019-05-15T21:33:40.391Z,20.53
2019-05-15T21:36:20.122Z,21.00
2019-05-15T21:38:59.548Z,23.50
2019-05-15T21:41:38.946Z,19.33
2019-05-15T21:44:19.112Z,24.83
2019-05-15T21:46:58.928Z,30.60
2019-05-15T21:49:38.916Z,19.43
2019-05-15T21:52:18.592Z,20.67
2019-05-15T21:54:58.799Z,19.47
2019-05-15T21:57:40.276Z,21.77
2019-05-15T22:00:38.214Z,19.57
2019-05-15T22:03:17.812Z,17.60
2019-05-15T22:05:58.207Z,18.07
2019-05-15T22:08:38.458Z,18.07
2019-05-15T22:11:18.722Z,16.10
2019-05-15T22:13:59.185Z,21.83
2019-05-15T22:16:38.309Z,16.67
2019-05-15T22:19:18.129Z,20.77
2019-05-15T22:21:58.682Z,17.07
2019-05-15T22:24:38.955Z,16.27
2019-05-15T22:27:21.016Z,18.67
2019-05-15T22:29:58.763Z,18.30
2019-05-15T22:32:41.549Z,16.00
2019-05-15T22:35:19.540Z,13.40
2019-05-15T22:37:59.347Z,14.97
2019-05-15T22:40:38.897Z,12.60
2019-05-15T22:43:18.697Z,11.83
2019-05-15T22:45:58.783Z,13.27
2019-05-15T22:48:38.605Z,12.90
2019-05-15T22:51:19.878Z,12.67
2019-05-15T22:54:02.238Z,15.50
2019-05-15T22:56:41.598Z,17.03
2019-05-15T22:59:21.131Z,17.30
2019-05-15T23:02:00.898Z,13.37
2019-05-15T23:04:48.304Z,14.60
2019-05-15T23:07:28.354Z,12.57
2019-05-15T23:10:08.885Z,13.47
2019-05-15T23:12:49.570Z,13.83
2019-05-15T23:15:29.443Z,13.93
2019-05-15T23:18:08.707Z,19.13
2019-05-15T23:20:48.504Z,19.47
2019-05-15T23:23:28.591Z,15.37
2019-05-15T23:26:09.747Z,15.47
2019-05-15T23:28:50.305Z,12.77
2019-05-15T23:31:29.858Z,13.77
2019-05-15T23:34:09.471Z,12.50
2019-05-15T23:36:51.311Z,12.07
2019-05-15T23:39:31.112Z,13.33
2019-05-15T23:42:12.417Z,12.87
2019-05-15T23:44:52.687Z,12.53
2019-05-15T23:47:32.581Z,12.33
2019-05-15T23:50:12.503Z,12.50
2019-05-15T23:52:52.447Z,12.70
2019-05-15T23:55:33.843Z,13.23
2019-05-15T23:58:18.885Z,11.50
